createdAt,value
2022-10-05T00:00:12.525Z,0.00
2022-10-05T00:01:12.517Z,0.00
2022-10-05T00:02:12.620Z,0.00
2022-10-05T00:03:12.495Z,0.00
2022-10-05T00:04:12.493Z,0.00
2022-10-05T00:05:12.519Z,0.00
2022-10-05T00:06:12.444Z,0.00
2022-10-05T00:07:12.448Z,0.00
2022-10-05T00:08:12.414Z,0.00
2022-10-05T00:09:12.418Z,0.00
2022-10-05T00:10:12.396Z,0.00
2022-10-05T00:11:12.385Z,0.00
2022-10-05T00:12:12.385Z,0.00
2022-10-05T00:13:12.364Z,0.00
2022-10-05T00:14:12.342Z,0.00
2022-10-05T00:15:12.335Z,0.00
2022-10-05T00:16:12.360Z,0.00
2022-10-05T00:17:12.325Z,0.00
2022-10-05T00:18:12.283Z,0.00
2022-10-05T00:19:12.278Z,0.00
2022-10-05T00:20:12.263Z,0.00
2022-10-05T00:21:12.254Z,0.00
2022-10-05T00:22:12.254Z,0.00
2022-10-05T00:23:12.241Z,0.00
2022-10-05T00:24:12.216Z,0.00
2022-10-05T00:25:12.210Z,0.00
2022-10-05T00:26:12.184Z,0.00
2022-10-05T00:27:12.194Z,0.00
2022-10-05T00:28:12.200Z,0.00
2022-10-05T00:29:12.153Z,0.00
2022-10-05T00:30:12.139Z,0.00
2022-10-05T00:31:12.148Z,0.00
2022-10-05T00:32:12.180Z,0.00
2022-10-05T00:33:12.102Z,0.00
2022-10-05T00:34:12.090Z,0.00
2022-10-05T00:35:12.064Z,0.00
2022-10-05T00:36:12.056Z,0.00
2022-10-05T00:37:12.054Z,0.00
2022-10-05T00:38:12.025Z,0.00
2022-10-05T00:39:12.020Z,0.00
2022-10-05T00:40:12.003Z,0.00
2022-10-05T00:41:11.991Z,0.00
2022-10-05T00:42:11.982Z,0.00
2022-10-05T00:43:11.971Z,0.00
2022-10-05T00:44:11.950Z,0.00
2022-10-05T00:45:11.943Z,0.00
2022-10-05T00:46:11.954Z,0.00
2022-10-05T00:47:11.935Z,0.00
2022-10-05T00:48:11.899Z,0.00
2022-10-05T00:49:11.895Z,0.00
2022-10-05T00:50:11.869Z,0.00
2022-10-05T00:51:11.865Z,0.00
2022-10-05T00:52:11.857Z,0.00
2022-10-05T00:53:11.834Z,0.00
2022-10-05T00:54:15.988Z,0.00
2022-10-05T00:55:12.837Z,0.00
2022-10-05T00:56:11.788Z,0.00
2022-10-05T00:57:11.792Z,0.00
2022-10-05T00:58:11.761Z,0.00
2022-10-05T00:59:11.753Z,0.00
2022-10-05T01:00:11.738Z,0.00
2022-10-05T01:01:11.775Z,0.00
2022-10-05T01:02:11.889Z,0.00
2022-10-05T01:03:11.698Z,0.00
2022-10-05T01:04:11.690Z,0.00
2022-10-05T01:05:11.685Z,0.00
2022-10-05T01:06:11.657Z,0.00
2022-10-05T01:07:11.669Z,0.00
2022-10-05T01:08:11.635Z,0.00
2022-10-05T01:09:11.626Z,0.00
2022-10-05T01:10:11.613Z,0.00
2022-10-05T01:11:11.605Z,0.00
2022-10-05T01:12:11.597Z,0.00
2022-10-05T01:13:11.582Z,0.00
2022-10-05T01:14:11.555Z,0.00
2022-10-05T01:15:11.549Z,0.00
2022-10-05T01:16:11.568Z,0.00
2022-10-05T01:17:11.586Z,0.00
2022-10-05T01:18:11.496Z,0.00
2022-10-05T01:19:11.502Z,0.00
2022-10-05T01:20:11.475Z,0.00
2022-10-05T01:21:11.475Z,0.00
2022-10-05T01:22:21.468Z,0.00
2022-10-05T01:23:11.437Z,0.00
2022-10-05T01:24:11.425Z,0.00
2022-10-05T01:25:11.427Z,0.00
2022-10-05T01:26:11.398Z,0.00
2022-10-05T01:27:11.404Z,0.00
2022-10-05T01:28:11.436Z,0.00
2022-10-05T01:29:11.376Z,0.00
2022-10-05T01:30:11.348Z,0.00
2022-10-05T01:31:11.386Z,0.00
2022-10-05T01:32:11.335Z,0.00
2022-10-05T01:33:11.324Z,0.00
2022-10-05T01:34:11.695Z,0.00
2022-10-05T01:35:11.282Z,0.00
2022-10-05T01:36:11.258Z,0.00
2022-10-05T01:37:11.277Z,0.00
2022-10-05T01:38:11.240Z,0.00
2022-10-05T01:39:11.238Z,0.00
2022-10-05T01:40:11.228Z,0.00
2022-10-05T01:41:11.208Z,0.00
2022-10-05T01:42:11.213Z,0.00
2022-10-05T01:43:11.182Z,0.00
2022-10-05T01:44:11.164Z,0.00
2022-10-05T01:45:11.178Z,0.00
2022-10-05T01:46:11.196Z,0.00
2022-10-05T01:47:11.133Z,0.00
2022-10-05T01:48:11.134Z,0.00
2022-10-05T01:49:11.093Z,0.00
2022-10-05T01:50:11.082Z,0.00
2022-10-05T01:51:11.098Z,0.00
2022-10-05T01:52:11.061Z,0.00
2022-10-05T01:53:11.047Z,0.00
2022-10-05T01:54:11.041Z,0.00
2022-10-05T01:55:11.025Z,0.00
2022-10-05T01:56:11.017Z,0.00
2022-10-05T01:57:10.992Z,0.00
2022-10-05T01:58:10.984Z,0.00
2022-10-05T01:59:10.978Z,0.00
2022-10-05T02:00:10.956Z,0.00
2022-10-05T02:01:10.997Z,0.00
2022-10-05T02:02:11.002Z,0.00
2022-10-05T02:03:10.925Z,0.00
2022-10-05T02:04:10.901Z,0.00
2022-10-05T02:05:10.893Z,0.00
2022-10-05T02:06:10.886Z,0.00
2022-10-05T02:07:10.869Z,0.00
2022-10-05T02:08:10.851Z,0.00
2022-10-05T02:09:10.845Z,0.00
2022-10-05T02:10:10.821Z,0.00
2022-10-05T02:11:10.841Z,0.00
2022-10-05T02:12:10.803Z,0.00
2022-10-05T02:13:10.791Z,0.00
2022-10-05T02:14:10.773Z,0.00
2022-10-05T02:15:10.773Z,0.00
2022-10-05T02:16:10.830Z,0.00
2022-10-05T02:17:10.751Z,0.00
2022-10-05T02:18:10.719Z,0.00
2022-10-05T02:19:10.711Z,0.00
2022-10-05T02:20:10.699Z,0.00
2022-10-05T02:21:10.702Z,0.00
2022-10-05T02:22:10.673Z,0.00
2022-10-05T02:23:10.659Z,0.00
2022-10-05T02:24:10.641Z,0.00
2022-10-05T02:25:10.628Z,0.00
2022-10-05T02:26:10.628Z,0.00
2022-10-05T02:27:10.642Z,0.00
2022-10-05T02:28:10.671Z,0.00
2022-10-05T02:29:10.582Z,0.00
2022-10-05T02:30:16.243Z,0.00
2022-10-05T02:31:11.627Z,0.00
2022-10-05T02:32:10.553Z,0.00
2022-10-05T02:33:10.530Z,0.00
2022-10-05T02:34:10.509Z,0.00
2022-10-05T02:35:10.514Z,0.00
2022-10-05T02:36:10.488Z,0.00
2022-10-05T02:37:10.480Z,0.00
2022-10-05T02:38:10.466Z,0.00
2022-10-05T02:39:10.454Z,0.00
2022-10-05T02:40:10.437Z,0.00
2022-10-05T02:41:10.440Z,0.00
2022-10-05T02:42:10.409Z,0.00
2022-10-05T02:43:10.410Z,0.00
2022-10-05T02:44:10.387Z,0.00
2022-10-05T02:45:10.368Z,0.00
2022-10-05T02:46:10.455Z,0.00
2022-10-05T02:47:10.359Z,0.00
2022-10-05T02:48:10.354Z,0.00
2022-10-05T02:49:10.317Z,0.00
2022-10-05T02:50:10.295Z,0.00
2022-10-05T02:51:10.325Z,0.00
2022-10-05T02:52:10.274Z,0.00
2022-10-05T02:53:10.264Z,0.00
2022-10-05T02:54:10.263Z,0.00
2022-10-05T02:55:10.254Z,0.00
2022-10-05T02:56:10.236Z,0.00
2022-10-05T02:57:10.214Z,0.00
2022-10-05T02:58:10.198Z,0.00
2022-10-05T02:59:10.196Z,0.00
2022-10-05T03:00:10.177Z,0.00
2022-10-05T03:01:10.239Z,0.00
2022-10-05T03:02:10.171Z,0.00
2022-10-05T03:03:10.145Z,0.00
2022-10-05T03:04:10.127Z,0.00
2022-10-05T03:05:10.103Z,0.00
2022-10-05T03:06:10.110Z,0.00
2022-10-05T03:07:10.083Z,0.00
2022-10-05T03:08:10.070Z,0.00
2022-10-05T03:09:10.056Z,0.00
2022-10-05T03:10:10.045Z,0.00
2022-10-05T03:11:10.044Z,0.00
2022-10-05T03:12:10.013Z,0.00
2022-10-05T03:13:10.012Z,0.00
2022-10-05T03:14:09.993Z,0.00
2022-10-05T03:15:09.991Z,0.00
2022-10-05T03:16:10.020Z,0.00
2022-10-05T03:17:09.970Z,0.00
2022-10-05T03:18:09.947Z,0.00
2022-10-05T03:19:09.956Z,0.00
2022-10-05T03:20:09.932Z,0.00
2022-10-05T03:21:09.902Z,0.00
2022-10-05T03:22:09.890Z,0.00
2022-10-05T03:23:09.882Z,0.00
2022-10-05T03:24:09.870Z,0.00
2022-10-05T03:25:09.861Z,0.00
2022-10-05T03:26:09.838Z,0.00
2022-10-05T03:27:09.828Z,0.00
2022-10-05T03:28:09.869Z,0.00
2022-10-05T03:29:09.802Z,0.00
2022-10-05T03:30:09.799Z,0.00
2022-10-05T03:31:09.813Z,0.00
2022-10-05T03:32:09.758Z,0.00
2022-10-05T03:33:09.747Z,0.00
2022-10-05T03:34:09.729Z,0.00
2022-10-05T03:35:09.768Z,0.00
2022-10-05T03:36:09.711Z,0.00
2022-10-05T03:37:09.688Z,0.00
2022-10-05T03:38:09.684Z,0.00
2022-10-05T03:39:09.657Z,0.00
2022-10-05T03:40:09.675Z,0.00
2022-10-05T03:41:09.639Z,0.00
2022-10-05T03:42:09.627Z,0.00
2022-10-05T03:43:09.606Z,0.00
2022-10-05T03:44:09.620Z,0.00
2022-10-05T03:45:09.622Z,0.00
2022-10-05T03:46:09.656Z,0.00
2022-10-05T03:47:09.579Z,0.00
2022-10-05T03:48:09.559Z,0.00
2022-10-05T03:49:09.558Z,0.00
2022-10-05T03:50:09.547Z,0.00
2022-10-05T03:51:09.506Z,0.00
2022-10-05T03:52:09.501Z,0.00
2022-10-05T03:53:09.474Z,0.00
2022-10-05T03:54:09.476Z,0.00
2022-10-05T03:55:09.464Z,0.00
2022-10-05T03:56:09.444Z,0.00
2022-10-05T03:57:09.437Z,0.00
2022-10-05T03:58:09.440Z,0.00
2022-10-05T03:59:09.423Z,0.00
2022-10-05T04:00:09.395Z,0.00
2022-10-05T04:01:09.441Z,0.00
2022-10-05T04:02:09.421Z,0.00
2022-10-05T04:03:09.355Z,0.00
2022-10-05T04:04:09.372Z,0.00
2022-10-05T04:05:09.325Z,0.00
2022-10-05T04:06:09.326Z,0.00
2022-10-05T04:07:09.294Z,0.00
2022-10-05T04:08:09.293Z,0.00
2022-10-05T04:09:09.306Z,0.00
2022-10-05T04:10:09.269Z,0.00
2022-10-05T04:11:09.264Z,0.00
2022-10-05T04:12:09.249Z,0.00
2022-10-05T04:13:09.218Z,0.00
2022-10-05T04:14:09.224Z,0.00
2022-10-05T04:15:09.205Z,0.00
2022-10-05T04:16:09.236Z,0.00
2022-10-05T04:17:09.172Z,0.00
2022-10-05T04:18:09.153Z,0.00
2022-10-05T04:19:09.154Z,0.00
2022-10-05T04:20:09.133Z,0.00
2022-10-05T04:21:09.114Z,0.00
2022-10-05T04:22:09.103Z,0.00
2022-10-05T04:23:09.095Z,0.00
2022-10-05T04:24:09.097Z,0.00
2022-10-05T04:25:09.095Z,0.00
2022-10-05T04:26:09.068Z,0.00
2022-10-05T04:27:09.043Z,0.00
2022-10-05T04:28:09.116Z,0.00
2022-10-05T04:29:09.020Z,0.00
2022-10-05T04:30:09.010Z,0.00
2022-10-05T04:31:09.034Z,0.00
2022-10-05T04:32:08.982Z,0.00
2022-10-05T04:33:08.961Z,0.00
2022-10-05T04:34:08.980Z,0.00
2022-10-05T04:35:08.930Z,0.00
2022-10-05T04:36:08.929Z,0.00
2022-10-05T04:37:08.911Z,0.00
2022-10-05T04:38:08.900Z,0.00
2022-10-05T04:39:08.893Z,0.00
2022-10-05T04:40:08.869Z,0.00
2022-10-05T04:41:08.860Z,0.00
2022-10-05T04:42:08.850Z,0.00
2022-10-05T04:43:08.819Z,0.00
2022-10-05T04:44:08.830Z,0.00
2022-10-05T04:45:08.805Z,0.00
2022-10-05T04:46:08.792Z,0.00
2022-10-05T04:47:08.808Z,0.00
2022-10-05T04:48:08.773Z,0.00
2022-10-05T04:49:08.762Z,0.00
2022-10-05T04:50:08.737Z,0.00
2022-10-05T04:51:08.717Z,0.00
2022-10-05T04:52:08.706Z,0.00
2022-10-05T04:53:08.689Z,0.00
2022-10-05T04:54:08.698Z,0.00
2022-10-05T04:55:08.676Z,0.00
2022-10-05T04:56:08.661Z,0.00
2022-10-05T04:57:08.640Z,0.00
2022-10-05T04:58:08.635Z,0.00
2022-10-05T04:59:08.627Z,0.00
2022-10-05T05:00:08.605Z,0.00
2022-10-05T05:01:08.666Z,0.00
2022-10-05T05:02:08.590Z,0.00
2022-10-05T05:03:08.567Z,0.00
2022-10-05T05:04:08.619Z,0.00
2022-10-05T05:05:08.539Z,0.00
2022-10-05T05:06:22.866Z,0.00
2022-10-05T05:07:09.514Z,0.00
2022-10-05T05:08:08.502Z,0.00
2022-10-05T05:09:08.497Z,0.00
2022-10-05T05:10:08.475Z,0.00
2022-10-05T05:11:11.326Z,0.00
2022-10-05T05:12:09.457Z,0.00
2022-10-05T05:13:08.432Z,0.00
2022-10-05T05:14:08.434Z,0.00
2022-10-05T05:15:08.410Z,5.62
2022-10-05T05:16:08.465Z,5.62
2022-10-05T05:17:12.299Z,5.62
2022-10-05T05:18:08.374Z,5.62
2022-10-05T05:19:08.365Z,5.62
2022-10-05T05:20:08.353Z,5.62
2022-10-05T05:21:08.336Z,5.62
2022-10-05T05:22:08.326Z,5.62
2022-10-05T05:23:08.302Z,11.25
2022-10-05T05:24:08.302Z,11.25
2022-10-05T05:25:08.286Z,11.25
2022-10-05T05:26:08.263Z,11.25
2022-10-05T05:27:08.253Z,16.88
2022-10-05T05:28:08.304Z,16.88
2022-10-05T05:29:08.233Z,16.88
2022-10-05T05:30:08.222Z,22.50
2022-10-05T05:31:08.272Z,22.50
2022-10-05T05:32:08.191Z,28.12
2022-10-05T05:33:08.170Z,28.12
2022-10-05T05:34:08.172Z,28.12
2022-10-05T05:35:08.150Z,33.75
2022-10-05T05:36:08.131Z,33.75
2022-10-05T05:37:08.122Z,39.38
2022-10-05T05:38:08.120Z,39.38
2022-10-05T05:39:08.100Z,45.00
2022-10-05T05:40:08.079Z,45.00
2022-10-05T05:41:08.059Z,50.62
2022-10-05T05:42:08.064Z,50.62
2022-10-05T05:43:08.064Z,50.62
2022-10-05T05:44:08.044Z,56.25
2022-10-05T05:45:08.019Z,56.25
2022-10-05T05:46:08.183Z,56.25
2022-10-05T05:47:08.440Z,61.88
2022-10-05T05:48:07.988Z,61.88
2022-10-05T05:49:07.970Z,67.50
2022-10-05T05:50:08.027Z,73.12
2022-10-05T05:51:07.939Z,73.12
2022-10-05T05:52:07.937Z,84.38
2022-10-05T05:53:07.938Z,90.00
2022-10-05T05:54:07.906Z,135.00
2022-10-05T05:55:07.888Z,219.38
2022-10-05T05:56:07.881Z,253.12
2022-10-05T05:57:07.857Z,326.25
2022-10-05T05:58:07.868Z,472.50
2022-10-05T05:59:07.839Z,264.38
2022-10-05T06:00:07.830Z,146.25
2022-10-05T06:01:20.304Z,129.38
2022-10-05T06:02:08.875Z,129.38
2022-10-05T06:03:07.889Z,129.38
2022-10-05T06:04:07.778Z,225.00
2022-10-05T06:05:07.814Z,500.62
2022-10-05T06:06:07.770Z,495.00
2022-10-05T06:07:07.736Z,765.00
2022-10-05T06:08:07.749Z,776.25
2022-10-05T06:09:07.706Z,309.38
2022-10-05T06:10:07.699Z,140.62
2022-10-05T06:11:07.676Z,146.25
2022-10-05T06:12:07.665Z,135.00
2022-10-05T06:13:07.667Z,140.62
2022-10-05T06:14:07.638Z,151.88
2022-10-05T06:15:07.631Z,157.50
2022-10-05T06:16:07.729Z,185.62
2022-10-05T06:17:07.620Z,174.38
2022-10-05T06:18:07.606Z,191.25
2022-10-05T06:19:07.575Z,275.62
2022-10-05T06:20:07.576Z,337.50
2022-10-05T06:21:07.545Z,281.25
2022-10-05T06:22:07.549Z,590.62
2022-10-05T06:23:07.525Z,528.75
2022-10-05T06:24:07.508Z,337.50
2022-10-05T06:25:07.498Z,219.38
2022-10-05T06:26:10.697Z,213.75
2022-10-05T06:27:07.488Z,506.25
2022-10-05T06:28:07.523Z,472.50
2022-10-05T06:29:07.437Z,163.12
2022-10-05T06:30:07.437Z,140.62
2022-10-05T06:31:07.448Z,146.25
2022-10-05T06:32:07.440Z,151.88
2022-10-05T06:33:07.392Z,146.25
2022-10-05T06:34:07.379Z,140.62
2022-10-05T06:35:07.371Z,140.62
2022-10-05T06:36:07.356Z,146.25
2022-10-05T06:37:07.348Z,163.12
2022-10-05T06:38:07.327Z,174.38
2022-10-05T06:39:07.306Z,191.25
2022-10-05T06:40:07.305Z,225.00
2022-10-05T06:41:07.284Z,281.25
2022-10-05T06:42:07.296Z,1575.00
2022-10-05T06:43:07.259Z,2553.75
2022-10-05T06:44:07.244Z,2030.62
2022-10-05T06:45:07.248Z,1490.62
2022-10-05T06:46:07.326Z,1271.25
2022-10-05T06:47:07.230Z,1012.50
2022-10-05T06:48:07.197Z,433.12
2022-10-05T06:49:07.184Z,281.25
2022-10-05T06:50:07.173Z,230.62
2022-10-05T06:51:07.151Z,241.88
2022-10-05T06:52:07.154Z,264.38
2022-10-05T06:53:07.158Z,258.75
2022-10-05T06:54:07.130Z,247.50
2022-10-05T06:55:09.571Z,225.00
2022-10-05T06:56:08.096Z,225.00
2022-10-05T06:57:07.501Z,202.50
2022-10-05T06:58:07.066Z,196.88
2022-10-05T06:59:07.045Z,202.50
2022-10-05T07:00:07.037Z,191.25
2022-10-05T07:01:07.053Z,191.25
2022-10-05T07:02:07.059Z,180.00
2022-10-05T07:03:07.012Z,168.75
2022-10-05T07:04:06.992Z,163.12
2022-10-05T07:05:06.967Z,168.75
2022-10-05T07:06:06.954Z,174.38
2022-10-05T07:07:06.945Z,185.62
2022-10-05T07:08:06.924Z,196.88
2022-10-05T07:09:06.924Z,202.50
2022-10-05T07:10:06.919Z,247.50
2022-10-05T07:11:06.889Z,270.00
2022-10-05T07:12:07.457Z,236.25
2022-10-05T07:13:06.874Z,247.50
2022-10-05T07:14:06.848Z,360.00
2022-10-05T07:15:06.843Z,523.12
2022-10-05T07:16:06.872Z,860.62
2022-10-05T07:17:06.833Z,1732.50
2022-10-05T07:18:06.819Z,2148.75
2022-10-05T07:19:06.784Z,1338.75
2022-10-05T07:20:06.773Z,776.25
2022-10-05T07:21:06.763Z,500.62
2022-10-05T07:23:06.726Z,455.62
2022-10-05T07:24:06.727Z,579.38
2022-10-05T07:25:06.712Z,495.00
2022-10-05T07:26:06.696Z,2154.38
2022-10-05T07:27:06.783Z,1125.00
2022-10-05T07:28:06.784Z,675.00
2022-10-05T07:29:06.742Z,511.88
2022-10-05T07:30:06.636Z,1406.25
2022-10-05T07:31:06.678Z,1974.38
2022-10-05T07:32:06.614Z,1974.38
2022-10-05T07:33:06.606Z,1428.75
2022-10-05T07:34:06.596Z,1743.75
2022-10-05T07:35:06.566Z,1738.12
2022-10-05T07:36:06.558Z,1344.38
2022-10-05T07:37:06.557Z,1327.50
2022-10-05T07:38:06.534Z,1794.38
2022-10-05T07:39:06.546Z,2283.75
2022-10-05T07:40:06.508Z,1721.25
2022-10-05T07:41:06.498Z,1001.25
2022-10-05T07:42:06.487Z,725.62
2022-10-05T07:43:06.476Z,984.38
2022-10-05T07:44:11.660Z,1074.38
2022-10-05T07:45:07.466Z,1023.75
2022-10-05T07:46:06.492Z,1288.12
2022-10-05T07:47:06.424Z,922.50
2022-10-05T07:48:06.431Z,675.00
2022-10-05T07:49:06.397Z,736.88
2022-10-05T07:50:06.377Z,1085.62
2022-10-05T07:51:06.374Z,1552.50
2022-10-05T07:52:06.345Z,1102.50
2022-10-05T07:53:06.359Z,888.75
2022-10-05T07:54:06.331Z,1372.50
2022-10-05T07:55:06.325Z,1805.62
2022-10-05T07:56:06.301Z,1546.88
2022-10-05T07:57:06.288Z,1496.25
2022-10-05T07:58:06.286Z,1608.75
2022-10-05T07:59:06.268Z,1265.62
2022-10-05T08:00:06.252Z,1215.00
2022-10-05T08:01:06.243Z,1276.88
2022-10-05T08:02:06.415Z,1490.62
2022-10-05T08:03:06.301Z,1378.12
2022-10-05T08:04:06.198Z,1243.12
2022-10-05T08:05:06.188Z,1794.38
2022-10-05T08:06:06.169Z,1816.88
2022-10-05T08:07:06.159Z,1552.50
2022-10-05T08:08:06.222Z,1580.62
2022-10-05T08:09:06.128Z,1147.50
2022-10-05T08:10:06.116Z,945.00
2022-10-05T08:11:06.136Z,1355.62
2022-10-05T08:12:06.107Z,1563.75
2022-10-05T08:13:06.122Z,838.12
2022-10-05T08:14:06.088Z,810.00
2022-10-05T08:15:06.057Z,1023.75
2022-10-05T08:16:06.104Z,860.62
2022-10-05T08:17:06.032Z,579.38
2022-10-05T08:18:06.048Z,585.00
2022-10-05T08:19:06.022Z,556.88
2022-10-05T08:20:05.978Z,860.62
2022-10-05T08:21:05.976Z,967.50
2022-10-05T08:22:05.973Z,601.88
2022-10-05T08:23:15.150Z,511.88
2022-10-05T08:24:05.931Z,405.00
2022-10-05T08:25:05.927Z,320.62
2022-10-05T08:26:05.920Z,360.00
2022-10-05T08:27:05.898Z,466.88
2022-10-05T08:28:05.931Z,286.88
2022-10-05T08:29:09.139Z,275.62
2022-10-05T08:30:06.862Z,253.12
2022-10-05T08:31:05.884Z,236.25
2022-10-05T08:32:05.839Z,236.25
2022-10-05T08:33:05.837Z,219.38
2022-10-05T08:34:05.801Z,236.25
2022-10-05T08:35:05.792Z,236.25
2022-10-05T08:36:05.791Z,236.25
2022-10-05T08:37:05.784Z,236.25
2022-10-05T08:38:05.791Z,225.00
2022-10-05T08:39:05.732Z,225.00
2022-10-05T08:40:05.725Z,219.38
2022-10-05T08:41:05.714Z,213.75
2022-10-05T08:42:05.776Z,219.38
2022-10-05T08:43:05.700Z,225.00
2022-10-05T08:44:05.670Z,225.00
2022-10-05T08:45:05.662Z,230.62
2022-10-05T08:46:05.699Z,247.50
2022-10-05T08:47:05.643Z,236.25
2022-10-05T08:48:05.631Z,264.38
2022-10-05T08:49:05.614Z,247.50
2022-10-05T08:50:05.583Z,253.12
2022-10-05T08:51:05.574Z,258.75
2022-10-05T08:52:05.573Z,275.62
2022-10-05T08:53:05.560Z,286.88
2022-10-05T08:54:05.544Z,281.25
2022-10-05T08:55:05.534Z,270.00
2022-10-05T08:56:05.507Z,264.38
2022-10-05T08:57:05.604Z,253.12
2022-10-05T08:58:05.488Z,253.12
2022-10-05T08:59:05.477Z,253.12
2022-10-05T09:00:05.472Z,258.75
2022-10-05T09:01:05.502Z,264.38
2022-10-05T09:02:05.511Z,281.25
2022-10-05T09:03:05.423Z,315.00
2022-10-05T09:04:05.403Z,348.75
2022-10-05T09:05:05.394Z,343.12
2022-10-05T09:06:05.374Z,354.38
2022-10-05T09:07:05.390Z,309.38
2022-10-05T09:08:05.355Z,315.00
2022-10-05T09:09:05.351Z,309.38
2022-10-05T09:10:05.357Z,275.62
2022-10-05T09:11:05.323Z,270.00
2022-10-05T09:12:05.315Z,258.75
2022-10-05T09:13:05.293Z,253.12
2022-10-05T09:14:05.291Z,258.75
2022-10-05T09:15:24.856Z,253.12
2022-10-05T09:16:06.334Z,225.00
2022-10-05T09:17:05.266Z,213.75
2022-10-05T09:18:05.226Z,202.50
2022-10-05T09:19:05.221Z,191.25
2022-10-05T09:20:05.197Z,185.62
2022-10-05T09:21:05.197Z,180.00
2022-10-05T09:22:05.185Z,174.38
2022-10-05T09:23:05.183Z,174.38
2022-10-05T09:24:05.156Z,174.38
2022-10-05T09:25:05.158Z,168.75
2022-10-05T09:26:05.116Z,168.75
2022-10-05T09:27:05.122Z,174.38
2022-10-05T09:28:05.157Z,185.62
2022-10-05T09:29:05.089Z,185.62
2022-10-05T09:30:05.086Z,185.62
2022-10-05T09:31:05.156Z,191.25
2022-10-05T09:32:05.057Z,196.88
2022-10-05T09:33:05.048Z,230.62
2022-10-05T09:34:05.029Z,230.62
2022-10-05T09:35:05.098Z,247.50
2022-10-05T09:36:04.990Z,258.75
2022-10-05T09:37:04.987Z,264.38
2022-10-05T09:38:04.973Z,270.00
2022-10-05T09:39:04.970Z,281.25
2022-10-05T09:40:05.086Z,264.38
2022-10-05T09:41:04.926Z,241.88
2022-10-05T09:42:04.923Z,230.62
2022-10-05T09:43:04.906Z,225.00
2022-10-05T09:44:04.890Z,219.38
2022-10-05T09:45:04.890Z,213.75
2022-10-05T09:46:04.900Z,208.12
2022-10-05T09:47:04.847Z,208.12
2022-10-05T09:48:04.839Z,208.12
2022-10-05T09:49:04.820Z,208.12
2022-10-05T09:50:04.826Z,213.75
2022-10-05T09:51:04.799Z,219.38
2022-10-05T09:52:04.788Z,213.75
2022-10-05T09:53:04.775Z,236.25
2022-10-05T09:54:04.748Z,208.12
2022-10-05T09:55:04.747Z,202.50
2022-10-05T09:56:04.728Z,196.88
2022-10-05T09:57:04.734Z,208.12
2022-10-05T09:58:04.697Z,191.25
2022-10-05T09:59:04.689Z,191.25
2022-10-05T10:00:04.756Z,185.62
2022-10-05T10:01:09.722Z,191.25
2022-10-05T10:02:05.723Z,202.50
2022-10-05T10:03:04.948Z,230.62
2022-10-05T10:04:04.627Z,236.25
2022-10-05T10:05:04.610Z,270.00
2022-10-05T10:06:04.624Z,241.88
2022-10-05T10:07:04.613Z,208.12
2022-10-05T10:08:04.574Z,213.75
2022-10-05T10:09:04.559Z,219.38
2022-10-05T10:10:04.562Z,225.00
2022-10-05T10:11:04.553Z,213.75
2022-10-05T10:12:04.531Z,241.88
2022-10-05T10:13:04.514Z,219.38
2022-10-05T10:14:04.490Z,264.38
2022-10-05T10:15:04.496Z,258.75
2022-10-05T10:16:04.561Z,258.75
2022-10-05T10:17:04.459Z,258.75
2022-10-05T10:18:04.442Z,258.75
2022-10-05T10:19:04.429Z,258.75
2022-10-05T10:20:04.411Z,258.75
2022-10-05T10:21:04.417Z,258.75
2022-10-05T10:22:04.398Z,253.12
2022-10-05T10:23:04.383Z,247.50
2022-10-05T10:24:04.359Z,241.88
2022-10-05T10:25:04.362Z,230.62
2022-10-05T10:26:04.345Z,191.25
2022-10-05T10:27:04.354Z,180.00
2022-10-05T10:28:04.352Z,191.25
2022-10-05T10:29:04.303Z,208.12
2022-10-05T10:30:04.280Z,213.75
2022-10-05T10:31:04.364Z,208.12
2022-10-05T10:32:04.264Z,185.62
2022-10-05T10:33:59.513Z,0.00
2022-10-05T10:34:59.503Z,0.00
2022-10-05T10:36:01.643Z,0.00
2022-10-05T10:37:00.485Z,0.00
2022-10-05T10:37:59.466Z,0.00
2022-10-05T10:38:59.454Z,0.00
2022-10-05T10:39:59.443Z,0.00
2022-10-05T10:40:59.440Z,0.00
2022-10-05T10:41:59.404Z,0.00
2022-10-05T10:42:59.406Z,0.00
2022-10-05T10:43:59.386Z,0.00
2022-10-05T10:44:59.374Z,0.00
2022-10-05T10:45:59.429Z,0.00
2022-10-05T10:46:59.399Z,0.00
2022-10-05T10:47:59.337Z,0.00
2022-10-05T10:48:59.323Z,0.00
2022-10-05T10:49:59.316Z,0.00
2022-10-05T10:50:59.306Z,0.00
2022-10-05T10:51:59.293Z,0.00
2022-10-05T10:52:59.284Z,0.00
2022-10-05T10:53:59.256Z,0.00
2022-10-05T10:54:59.251Z,0.00
2022-10-05T10:55:59.244Z,0.00
2022-10-05T10:56:59.235Z,0.00
2022-10-05T10:57:59.206Z,0.00
2022-10-05T10:58:59.197Z,0.00
2022-10-05T10:59:59.175Z,0.00
2022-10-05T11:00:59.186Z,0.00
2022-10-05T11:01:59.240Z,0.00
2022-10-05T11:02:59.199Z,0.00
2022-10-05T11:03:59.265Z,0.00
2022-10-05T11:04:59.116Z,0.00
2022-10-05T11:05:59.106Z,0.00
2022-10-05T11:06:59.093Z,0.00
2022-10-05T11:07:59.069Z,0.00
2022-10-05T11:08:59.077Z,0.00
2022-10-05T11:09:59.044Z,0.00
2022-10-05T11:10:59.046Z,0.00
2022-10-05T11:11:59.019Z,0.00
2022-10-05T11:12:59.008Z,0.00
2022-10-05T11:13:58.994Z,0.00
2022-10-05T11:14:59.011Z,0.00
2022-10-05T11:15:59.083Z,0.00
2022-10-05T11:16:58.957Z,0.00
2022-10-05T11:17:58.951Z,0.00
2022-10-05T11:18:58.931Z,0.00
2022-10-05T11:20:04.015Z,0.00
2022-10-05T11:20:59.921Z,0.00
2022-10-05T11:21:58.899Z,0.00
2022-10-05T11:22:58.885Z,0.00
2022-10-05T11:23:58.879Z,0.00
2022-10-05T11:24:58.863Z,0.00
2022-10-05T11:25:58.851Z,0.00
2022-10-05T11:26:58.827Z,0.00
2022-10-05T11:27:58.850Z,0.00
2022-10-05T11:28:58.834Z,0.00
2022-10-05T11:29:58.792Z,0.00
2022-10-05T11:30:58.816Z,0.00
2022-10-05T11:31:58.781Z,0.00
2022-10-05T11:32:58.751Z,0.00
2022-10-05T11:33:58.732Z,0.00
2022-10-05T11:34:58.741Z,0.00
2022-10-05T11:35:58.722Z,0.00
2022-10-05T11:36:58.700Z,0.00
2022-10-05T11:37:58.691Z,0.00
2022-10-05T11:38:58.671Z,0.00
2022-10-05T11:39:58.674Z,0.00
2022-10-05T11:40:58.668Z,0.00
2022-10-05T11:41:58.638Z,0.00
2022-10-05T11:42:58.642Z,0.00
2022-10-05T11:44:00.303Z,0.00
2022-10-05T11:44:58.618Z,0.00
2022-10-05T11:45:58.605Z,0.00
2022-10-05T11:46:58.569Z,0.00
2022-10-05T11:47:58.564Z,0.00
2022-10-05T11:48:58.541Z,0.00
2022-10-05T11:49:58.553Z,0.00
2022-10-05T11:50:58.520Z,0.00
2022-10-05T11:51:58.502Z,0.00
2022-10-05T11:52:58.508Z,0.00
2022-10-05T11:53:58.491Z,0.00
2022-10-05T11:55:10.505Z,0.00
2022-10-05T11:56:55.162Z,0.00
2022-10-05T11:57:55.133Z,0.00
2022-10-05T11:58:55.114Z,0.00
2022-10-05T11:59:55.105Z,0.00
2022-10-05T12:00:55.084Z,0.00
2022-10-05T12:01:55.064Z,0.00
2022-10-05T12:02:55.150Z,0.00
2022-10-05T12:03:55.135Z,0.00
2022-10-05T12:04:55.068Z,0.00
2022-10-05T12:05:55.025Z,0.00
2022-10-05T12:06:55.007Z,0.00
2022-10-05T12:07:54.994Z,0.00
2022-10-05T12:08:54.987Z,0.00
2022-10-05T12:09:54.976Z,0.00
2022-10-05T12:10:54.957Z,0.00
2022-10-05T12:11:57.870Z,0.00
2022-10-05T12:12:54.979Z,0.00
2022-10-05T12:13:54.929Z,0.00
2022-10-05T12:14:54.915Z,0.00
2022-10-05T12:15:54.944Z,0.00
2022-10-05T12:16:54.888Z,0.00
2022-10-05T12:17:54.866Z,0.00
2022-10-05T12:18:54.848Z,0.00
2022-10-05T12:19:54.837Z,0.00
2022-10-05T12:20:54.829Z,0.00
2022-10-05T12:21:54.830Z,0.00
2022-10-05T12:22:54.795Z,0.00
2022-10-05T12:23:54.790Z,0.00
2022-10-05T12:24:54.784Z,0.00
2022-10-05T12:25:54.759Z,0.00
2022-10-05T12:26:54.748Z,0.00
2022-10-05T12:27:54.812Z,0.00
2022-10-05T12:28:54.717Z,0.00
2022-10-05T12:29:54.717Z,0.00
2022-10-05T12:30:54.689Z,0.00
2022-10-05T12:31:54.702Z,0.00
2022-10-05T12:32:58.131Z,0.00
2022-10-05T12:33:55.667Z,0.00
2022-10-05T12:35:01.115Z,0.00
2022-10-05T12:35:55.628Z,0.00
2022-10-05T12:37:09.794Z,0.00
2022-10-05T12:37:55.598Z,0.00
2022-10-05T12:38:54.597Z,0.00
2022-10-05T12:39:54.580Z,0.00
2022-10-05T12:40:54.573Z,0.00
2022-10-05T12:41:54.561Z,0.00
2022-10-05T12:42:54.539Z,0.00
2022-10-05T12:43:54.520Z,0.00
2022-10-05T12:44:54.511Z,0.00
2022-10-05T12:45:54.526Z,0.00
2022-10-05T12:46:54.499Z,0.00
2022-10-05T12:47:54.470Z,0.00
2022-10-05T12:48:54.473Z,0.00
2022-10-05T12:49:54.439Z,0.00
2022-10-05T12:50:54.455Z,0.00
2022-10-05T12:51:54.443Z,0.00
2022-10-05T12:52:54.411Z,0.00
2022-10-05T12:53:54.388Z,0.00
2022-10-05T12:54:54.392Z,0.00
2022-10-05T12:55:54.375Z,0.00
2022-10-05T12:56:54.372Z,0.00
2022-10-05T12:57:54.362Z,0.00
2022-10-05T12:58:54.362Z,0.00
2022-10-05T12:59:54.320Z,0.00